createdAt,value
2022-10-30T00:01:11.732Z,9.32
2022-10-30T00:04:15.697Z,7.20
2022-10-30T00:07:18.212Z,9.20
2022-10-30T00:10:20.671Z,7.13
2022-10-30T00:13:23.403Z,5.60
2022-10-30T00:16:26.642Z,7.10
2022-10-30T00:19:30.501Z,15.57
2022-10-30T00:22:32.989Z,12.35
2022-10-30T00:25:36.187Z,13.13
2022-10-30T00:28:38.737Z,14.80
2022-10-30T00:31:41.192Z,14.50
2022-10-30T00:34:45.015Z,13.30
2022-10-30T00:37:47.510Z,10.88
2022-10-30T00:40:50.384Z,10.10
2022-10-30T00:43:53.106Z,10.52
2022-10-30T00:46:55.738Z,11.13
2022-10-30T00:50:04.092Z,9.07
2022-10-30T00:53:11.671Z,8.68
2022-10-30T00:56:16.968Z,8.70
2022-10-30T00:59:24.062Z,10.38
2022-10-30T01:02:27.115Z,8.43
2022-10-30T01:05:33.412Z,6.38
2022-10-30T01:08:36.473Z,8.55
2022-10-30T01:11:38.982Z,9.18
2022-10-30T01:14:46.377Z,7.95
2022-10-30T01:18:21.523Z,7.70
2022-10-30T01:21:39.456Z,9.82
2022-10-30T01:24:50.360Z,12.07
2022-10-30T01:28:00.331Z,10.65
2022-10-30T01:31:19.699Z,10.15
2022-10-30T01:34:29.906Z,9.05
2022-10-30T01:37:39.339Z,11.48
2022-10-30T01:40:41.837Z,7.15
2022-10-30T01:43:46.771Z,8.18
2022-10-30T01:47:01.563Z,10.80
2022-10-30T01:50:22.414Z,10.77
2022-10-30T01:53:37.907Z,10.80
2022-10-30T01:56:51.042Z,11.10
2022-10-30T01:59:59.805Z,19.40
2022-10-30T02:03:02.545Z,9.90
2022-10-30T02:06:05.896Z,12.15
2022-10-30T02:09:10.277Z,14.65
2022-10-30T02:12:12.769Z,16.38
2022-10-30T02:15:16.090Z,16.27
2022-10-30T02:18:18.604Z,15.10
2022-10-30T02:21:22.895Z,12.98
2022-10-30T02:24:25.387Z,17.45
2022-10-30T02:27:27.860Z,11.50
2022-10-30T02:30:30.562Z,10.55
2022-10-30T02:33:33.048Z,12.32
2022-10-30T02:36:36.846Z,13.57
2022-10-30T02:39:39.322Z,18.33
2022-10-30T02:42:41.810Z,12.90
2022-10-30T02:45:44.290Z,11.23
2022-10-30T02:48:46.893Z,12.93
2022-10-30T02:51:50.716Z,13.70
2022-10-30T02:54:53.203Z,12.93
2022-10-30T02:57:55.773Z,13.40
2022-10-30T03:00:58.326Z,11.90
2022-10-30T03:04:00.890Z,11.50
2022-10-30T03:07:04.703Z,10.55
2022-10-30T03:10:07.813Z,10.95
2022-10-30T03:13:10.309Z,10.85
2022-10-30T03:16:15.170Z,9.32
2022-10-30T03:19:17.798Z,11.13
2022-10-30T03:22:21.678Z,11.35
2022-10-30T03:25:24.297Z,10.75
2022-10-30T03:28:28.339Z,11.27
2022-10-30T03:31:32.496Z,12.68
2022-10-30T03:34:35.034Z,11.88
2022-10-30T03:37:38.847Z,12.70
2022-10-30T03:40:41.751Z,10.80
2022-10-30T03:43:44.239Z,11.98
2022-10-30T03:46:46.767Z,11.07
2022-10-30T03:49:49.238Z,10.30
2022-10-30T03:52:54.459Z,12.85
2022-10-30T03:55:59.997Z,13.40
2022-10-30T03:59:02.718Z,13.15
2022-10-30T04:02:05.372Z,12.00
2022-10-30T04:05:08.902Z,9.88
2022-10-30T04:08:14.919Z,10.32
2022-10-30T04:11:17.427Z,9.23
2022-10-30T04:14:19.934Z,10.90
2022-10-30T04:17:22.404Z,10.85
2022-10-30T04:20:26.763Z,11.52
2022-10-30T04:23:30.601Z,11.93
2022-10-30T04:26:33.066Z,11.50
2022-10-30T04:29:37.543Z,9.82
2022-10-30T04:32:47.109Z,9.27
2022-10-30T04:35:49.611Z,8.73
2022-10-30T04:38:53.463Z,8.90
2022-10-30T04:41:55.929Z,9.23
2022-10-30T04:44:58.385Z,10.68
2022-10-30T04:48:01.945Z,12.95
2022-10-30T04:51:04.853Z,13.10
2022-10-30T04:54:08.788Z,13.23
2022-10-30T04:57:11.269Z,14.32
2022-10-30T05:00:14.541Z,15.18
2022-10-30T05:03:21.225Z,15.10
2022-10-30T05:06:25.978Z,11.98
2022-10-30T05:09:29.781Z,13.02
2022-10-30T05:12:32.255Z,12.65
2022-10-30T05:15:34.734Z,12.15
2022-10-30T05:18:37.331Z,13.73
2022-10-30T05:21:39.806Z,13.13
2022-10-30T05:24:43.638Z,11.60
2022-10-30T05:27:46.118Z,12.60
2022-10-30T05:30:48.633Z,13.93
2022-10-30T05:33:51.112Z,13.50
2022-10-30T05:36:53.568Z,11.23
2022-10-30T05:39:57.381Z,12.05
2022-10-30T05:43:00.607Z,13.80
2022-10-30T05:46:03.441Z,13.88
2022-10-30T05:49:06.009Z,15.57
2022-10-30T05:52:08.484Z,15.10
2022-10-30T05:55:12.396Z,16.23
2022-10-30T05:58:14.923Z,13.77
2022-10-30T06:01:17.794Z,14.43
2022-10-30T06:04:20.355Z,14.95
2022-10-30T06:07:22.893Z,14.90
2022-10-30T06:10:27.702Z,13.60
2022-10-30T06:13:30.174Z,14.27
2022-10-30T06:19:40.047Z,14.80
2022-10-30T06:22:42.631Z,14.82
2022-10-30T06:25:46.957Z,14.80
2022-10-30T06:28:49.431Z,16.17
2022-10-30T06:31:51.885Z,15.80
2022-10-30T06:34:54.372Z,14.95
2022-10-30T06:38:00.127Z,16.17
2022-10-30T06:41:03.959Z,14.50
2022-10-30T06:44:06.631Z,15.18
2022-10-30T06:47:09.081Z,16.30
2022-10-30T06:50:15.046Z,15.45
2022-10-30T06:53:17.611Z,16.50
2022-10-30T06:56:21.414Z,14.20
2022-10-30T06:59:24.017Z,15.25
2022-10-30T07:02:26.542Z,14.35
2022-10-30T07:05:29.112Z,15.20
2022-10-30T07:08:32.615Z,15.07
2022-10-30T07:11:36.461Z,17.95
2022-10-30T07:14:39.930Z,16.80
2022-10-30T07:17:42.411Z,17.13
2022-10-30T07:20:44.900Z,17.02
2022-10-30T07:23:47.379Z,17.35
2022-10-30T07:26:51.174Z,18.13
2022-10-30T07:29:53.682Z,18.70
2022-10-30T07:33:01.341Z,15.82
2022-10-30T07:36:04.628Z,16.77
2022-10-30T07:39:07.166Z,15.93
2022-10-30T07:42:10.943Z,16.52
2022-10-30T07:45:13.432Z,17.75
2022-10-30T07:48:15.914Z,15.80
2022-10-30T07:51:18.422Z,16.92
2022-10-30T07:54:21.026Z,17.15
2022-10-30T07:57:25.053Z,17.05
2022-10-30T08:00:27.780Z,15.68
2022-10-30T08:03:30.365Z,18.30
2022-10-30T08:06:32.846Z,17.55
2022-10-30T08:09:35.340Z,17.58
2022-10-30T08:12:40.574Z,16.48
2022-10-30T08:15:43.589Z,17.92
2022-10-30T08:18:46.177Z,16.88
2022-10-30T08:21:48.678Z,18.42
2022-10-30T08:24:51.238Z,16.48
2022-10-30T08:27:57.254Z,15.40
2022-10-30T08:31:00.324Z,16.77
2022-10-30T08:34:02.985Z,15.80
2022-10-30T08:37:05.749Z,15.38
2022-10-30T08:40:09.590Z,14.27
2022-10-30T08:43:13.785Z,15.27
2022-10-30T08:46:16.328Z,14.40
2022-10-30T08:49:18.811Z,14.15
2022-10-30T08:52:21.405Z,13.68
2022-10-30T08:55:24.977Z,13.60
2022-10-30T08:58:28.889Z,13.85
2022-10-30T09:01:31.578Z,12.90
2022-10-30T09:04:34.186Z,12.65
2022-10-30T09:07:37.289Z,12.43
2022-10-30T09:10:39.883Z,12.50
2022-10-30T09:13:44.840Z,11.05
2022-10-30T09:16:47.373Z,10.98
2022-10-30T09:19:49.973Z,10.70
2022-10-30T09:22:52.913Z,10.65
2022-10-30T09:25:58.319Z,9.88
2022-10-30T09:29:02.215Z,10.18
2022-10-30T09:32:08.703Z,9.70
2022-10-30T09:35:11.588Z,9.52
2022-10-30T09:38:14.125Z,9.27
2022-10-30T09:41:33.142Z,8.90
2022-10-30T09:44:56.488Z,9.43
2022-10-30T09:48:23.302Z,9.35
2022-10-30T09:51:54.399Z,9.38
2022-10-30T09:55:17.425Z,8.67
2022-10-30T09:58:26.283Z,8.00
2022-10-30T10:01:37.645Z,7.82
2022-10-30T10:04:44.309Z,8.57
2022-10-30T10:07:50.218Z,8.00
2022-10-30T10:10:57.067Z,7.70
2022-10-30T10:14:03.118Z,7.55
2022-10-30T10:17:13.633Z,7.80
2022-10-30T10:20:20.763Z,6.93
2022-10-30T10:23:31.797Z,7.05
2022-10-30T10:26:48.129Z,7.15
2022-10-30T10:30:02.365Z,7.35
2022-10-30T10:33:37.714Z,7.57
2022-10-30T10:36:49.830Z,7.28
2022-10-30T10:40:04.314Z,6.45
2022-10-30T10:43:20.845Z,7.03
2022-10-30T10:46:38.987Z,6.53
2022-10-30T10:50:02.597Z,6.75
2022-10-30T10:53:11.619Z,6.65
2022-10-30T10:56:14.915Z,7.07
2022-10-30T10:59:21.816Z,6.65
2022-10-30T11:02:32.784Z,6.80
2022-10-30T11:05:38.966Z,6.60
2022-10-30T11:08:42.952Z,7.30
2022-10-30T11:11:47.090Z,6.63
2022-10-30T11:14:49.791Z,6.80
2022-10-30T11:17:59.507Z,6.80
2022-10-30T11:21:08.988Z,6.68
2022-10-30T11:24:28.595Z,6.63
2022-10-30T11:27:31.686Z,6.68
2022-10-30T11:30:34.178Z,5.93
2022-10-30T11:33:36.701Z,6.07
2022-10-30T11:36:39.186Z,6.80
2022-10-30T11:39:43.031Z,7.22
2022-10-30T11:42:49.094Z,6.57
2022-10-30T11:45:52.638Z,7.20
2022-10-30T11:48:55.573Z,6.93
2022-10-30T11:51:58.825Z,7.80
2022-10-30T11:55:11.163Z,6.75
2022-10-30T11:58:24.526Z,7.03
2022-10-30T12:01:29.604Z,8.10
2022-10-30T12:04:33.019Z,7.97
2022-10-30T12:07:35.659Z,7.38
2022-10-30T12:10:45.311Z,6.50
2022-10-30T12:13:47.943Z,6.63
2022-10-30T12:16:52.316Z,6.95
2022-10-30T12:19:57.419Z,7.50
2022-10-30T12:23:09.486Z,7.20
2022-10-30T12:26:13.939Z,7.70
2022-10-30T12:29:19.710Z,6.70
2022-10-30T12:32:25.757Z,6.22
2022-10-30T12:35:40.362Z,6.72
2022-10-30T12:38:46.718Z,6.63
2022-10-30T12:41:59.055Z,6.32
2022-10-30T12:45:09.784Z,7.32
2022-10-30T12:48:19.203Z,7.20
2022-10-30T12:51:28.523Z,6.88
2022-10-30T12:54:37.108Z,6.60
2022-10-30T12:57:47.049Z,6.05
2022-10-30T13:01:02.036Z,6.68
2022-10-30T13:04:10.357Z,7.32
2022-10-30T13:07:20.831Z,6.43
2022-10-30T13:10:29.863Z,6.28
2022-10-30T13:13:38.908Z,6.72
2022-10-30T13:16:41.421Z,6.07
2022-10-30T13:19:46.881Z,6.32
2022-10-30T13:22:55.003Z,6.75
2022-10-30T13:26:07.896Z,6.07
2022-10-30T13:29:22.684Z,5.85
2022-10-30T13:32:35.221Z,7.15
2022-10-30T13:35:47.046Z,6.63
2022-10-30T13:39:00.657Z,6.53
2022-10-30T13:42:20.855Z,7.07
2022-10-30T13:45:42.594Z,6.93
2022-10-30T13:49:03.412Z,6.53
2022-10-30T13:52:13.595Z,7.07
2022-10-30T13:55:20.983Z,6.50
2022-10-30T13:58:26.842Z,6.78
2022-10-30T14:01:35.898Z,6.95
2022-10-30T14:04:44.254Z,6.40
2022-10-30T14:07:54.811Z,6.10
2022-10-30T14:11:00.692Z,6.88
2022-10-30T14:14:28.122Z,6.57
2022-10-30T14:17:31.937Z,6.68
2022-10-30T14:20:34.510Z,5.97
2022-10-30T14:23:38.565Z,6.75
2022-10-30T14:26:52.632Z,6.68
2022-10-30T14:29:55.986Z,7.20
2022-10-30T14:32:59.882Z,7.40
2022-10-30T14:36:17.560Z,6.88
2022-10-30T14:39:29.048Z,6.82
2022-10-30T14:45:46.850Z,7.30
2022-10-30T14:49:01.168Z,7.13
2022-10-30T14:52:15.127Z,6.82
2022-10-30T14:55:29.193Z,7.32
2022-10-30T14:58:34.945Z,7.05
2022-10-30T15:01:47.370Z,7.20
2022-10-30T15:05:32.134Z,6.75
2022-10-30T15:08:43.512Z,6.40
2022-10-30T15:12:03.301Z,8.23
2022-10-30T15:15:12.692Z,7.63
2022-10-30T15:18:20.088Z,7.00
2022-10-30T15:21:29.036Z,7.30
2022-10-30T15:24:34.446Z,6.90
2022-10-30T15:27:44.014Z,6.22
2022-10-30T15:30:59.883Z,6.65
2022-10-30T15:34:02.534Z,6.50
2022-10-30T15:37:13.479Z,6.90
2022-10-30T15:40:20.619Z,7.23
2022-10-30T15:43:27.718Z,6.88
2022-10-30T15:46:30.338Z,6.85
2022-10-30T15:49:35.200Z,7.25
2022-10-30T15:52:43.302Z,7.07
2022-10-30T15:55:46.118Z,7.97
2022-10-30T15:58:51.192Z,8.18
2022-10-30T16:01:55.506Z,8.05
2022-10-30T16:04:58.125Z,7.20
2022-10-30T16:08:03.448Z,6.97
2022-10-30T16:11:06.318Z,7.95
2022-10-30T16:14:09.866Z,7.07
2022-10-30T16:17:12.523Z,7.25
2022-10-30T16:20:15.648Z,7.68
2022-10-30T16:23:21.187Z,7.40
2022-10-30T16:26:27.494Z,7.82
2022-10-30T16:29:31.772Z,7.28
2022-10-30T16:32:34.393Z,8.30
2022-10-30T16:35:37.118Z,4.93
2022-10-30T16:38:41.408Z,5.75
2022-10-30T16:41:44.314Z,6.95
2022-10-30T16:44:47.250Z,6.43
2022-10-30T16:47:54.002Z,4.50
2022-10-30T16:51:05.887Z,4.70
2022-10-30T16:54:21.488Z,4.03
2022-10-30T16:57:27.332Z,4.50
2022-10-30T17:00:35.396Z,5.63
2022-10-30T17:03:42.162Z,3.63
2022-10-30T17:06:46.162Z,3.30
2022-10-30T17:09:52.671Z,6.30
2022-10-30T17:13:30.635Z,5.03
2022-10-30T17:16:34.933Z,3.70
2022-10-30T17:19:48.299Z,2.28
2022-10-30T17:23:05.228Z,3.88
2022-10-30T17:26:13.019Z,2.20
2022-10-30T17:29:45.162Z,1.77
2022-10-30T17:35:56.356Z,1.42
2022-10-30T17:38:59.115Z,4.43
2022-10-30T17:42:03.353Z,3.90
2022-10-30T17:45:10.336Z,4.10
2022-10-30T17:48:15.005Z,3.88
2022-10-30T17:51:18.966Z,3.58
2022-10-30T17:54:21.834Z,3.47
2022-10-30T17:57:27.063Z,1.88
2022-10-30T18:00:29.583Z,2.60
2022-10-30T18:03:32.169Z,1.00
2022-10-30T18:06:34.700Z,1.30
2022-10-30T18:09:37.297Z,2.53
2022-10-30T18:12:41.511Z,2.75
2022-10-30T18:15:46.196Z,1.30
2022-10-30T18:18:50.066Z,1.52
2022-10-30T18:21:54.618Z,2.70
2022-10-30T18:24:57.197Z,1.38
2022-10-30T18:28:01.155Z,1.65
2022-10-30T18:31:03.685Z,1.42
2022-10-30T18:34:14.894Z,1.63
2022-10-30T18:37:17.415Z,2.88
2022-10-30T18:40:22.439Z,5.50
2022-10-30T18:43:26.654Z,0.60
2022-10-30T18:46:30.528Z,0.70
2022-10-30T18:49:33.563Z,2.80
2022-10-30T18:52:36.141Z,4.18
2022-10-30T18:55:40.593Z,4.95
2022-10-30T18:58:44.530Z,6.75
2022-10-30T19:01:47.184Z,4.35
2022-10-30T19:04:50.231Z,4.47
2022-10-30T19:07:52.861Z,3.95
2022-10-30T19:10:58.060Z,5.07
2022-10-30T19:14:02.048Z,4.65
2022-10-30T19:17:04.600Z,1.15
2022-10-30T19:20:07.831Z,0.80
2022-10-30T19:23:15.141Z,1.00
2022-10-30T19:26:18.030Z,1.95
2022-10-30T19:29:21.951Z,2.55
2022-10-30T19:32:24.415Z,3.25
2022-10-30T19:35:28.245Z,3.17
2022-10-30T19:38:31.078Z,6.85
2022-10-30T19:41:33.628Z,3.17
2022-10-30T19:44:37.438Z,6.80
2022-10-30T19:47:42.445Z,1.10
2022-10-30T19:50:45.732Z,0.95
2022-10-30T19:53:48.262Z,1.50
2022-10-30T19:56:50.725Z,2.03
2022-10-30T19:59:54.525Z,1.38
2022-10-30T20:02:58.625Z,1.13
2022-10-30T20:06:01.123Z,1.85
2022-10-30T20:09:05.403Z,2.60
2022-10-30T20:12:08.016Z,2.10
2022-10-30T20:15:17.574Z,2.60
2022-10-30T20:18:22.512Z,5.35
2022-10-30T20:21:25.003Z,1.58
2022-10-30T20:24:27.663Z,3.13
2022-10-30T20:27:30.134Z,3.15
2022-10-30T20:30:33.989Z,3.90
2022-10-30T20:33:36.544Z,3.55
2022-10-30T20:36:39.002Z,2.00
2022-10-30T20:39:41.525Z,1.90
2022-10-30T20:42:46.032Z,4.05
2022-10-30T20:45:49.881Z,3.95
2022-10-30T20:48:52.351Z,3.53
2022-10-30T20:51:54.927Z,4.18
2022-10-30T20:54:57.545Z,6.00
2022-10-30T20:58:00.391Z,5.43
2022-10-30T21:01:04.709Z,3.90
2022-10-30T21:04:07.613Z,4.10
2022-10-30T21:07:10.104Z,2.83
2022-10-30T21:10:12.659Z,2.00
2022-10-30T21:13:15.228Z,3.55
2022-10-30T21:16:19.114Z,1.90
2022-10-30T21:19:21.645Z,1.63
2022-10-30T21:22:24.223Z,3.20
2022-10-30T21:25:26.865Z,2.40
2022-10-30T21:28:29.415Z,2.40
2022-10-30T21:31:33.306Z,3.78
2022-10-30T21:34:35.812Z,3.30
2022-10-30T21:37:38.298Z,3.75
2022-10-30T21:40:40.790Z,4.53
2022-10-30T21:43:43.907Z,3.90
2022-10-30T21:46:50.751Z,3.55
2022-10-30T21:49:53.337Z,2.60
2022-10-30T21:52:55.966Z,1.38
2022-10-30T21:55:58.658Z,3.22
2022-10-30T21:59:04.623Z,3.30
2022-10-30T22:02:08.535Z,3.50
2022-10-30T22:05:11.077Z,4.70
2022-10-30T22:08:13.909Z,6.60
2022-10-30T22:11:17.212Z,6.57
2022-10-30T22:14:19.741Z,4.25
2022-10-30T22:17:23.682Z,3.80
2022-10-30T22:20:26.245Z,2.95
2022-10-30T22:23:29.105Z,2.70
2022-10-30T22:26:31.722Z,2.95
2022-10-30T22:29:34.302Z,4.10
2022-10-30T22:32:38.201Z,3.60
2022-10-30T22:35:40.750Z,3.88
2022-10-30T22:38:43.445Z,4.10
2022-10-30T22:41:45.981Z,3.40
2022-10-30T22:44:48.547Z,3.05
2022-10-30T22:47:52.360Z,5.50
2022-10-30T22:50:57.500Z,4.05
2022-10-30T22:54:02.177Z,4.25
2022-10-30T22:57:04.806Z,4.47
2022-10-30T23:00:08.611Z,2.72
2022-10-30T23:03:12.490Z,2.83
2022-10-30T23:06:15.059Z,3.00
2022-10-30T23:09:22.110Z,2.53
2022-10-30T23:12:24.622Z,2.38
2022-10-30T23:15:27.113Z,2.45
2022-10-30T23:18:31.486Z,3.38
2022-10-30T23:21:34.309Z,2.38
2022-10-30T23:24:36.815Z,3.05
2022-10-30T23:27:39.327Z,2.20
2022-10-30T23:30:43.381Z,2.13
2022-10-30T23:33:48.769Z,2.15
2022-10-30T23:36:51.234Z,1.90
2022-10-30T23:39:54.420Z,2.78
2022-10-30T23:42:57.237Z,1.90
2022-10-30T23:45:59.915Z,3.72
2022-10-30T23:49:05.100Z,3.83
2022-10-30T23:52:07.607Z,3.35
2022-10-30T23:55:10.831Z,3.38
2022-10-30T23:58:13.362Z,4.25
